ADDS METAR Data INFO
IDs: Format: Raw Decoded Include TAF

Data at: 0309 UTC 22 Apr 2018

KSWW 220255Z AUTO 34008KT 10SM CLR 14/07 A3014 RMK AO2 T01350070
KSWW 220235Z AUTO 35008KT 10SM CLR 14/07 A3013 RMK AO2 T01400070
KSWW 220215Z AUTO 34011G16KT 10SM CLR 15/07 A3012 RMK AO2 T01450074
KSWW 220155Z AUTO 33010G14KT 10SM CLR 15/08 A3012 RMK AO2 T01480075
KSWW 220135Z AUTO 34009KT 10SM SCT041 16/07 A3011 RMK AO2 T01550074
KSWW 220115Z AUTO 34010KT 10SM SCT041 16/07 A3009 RMK AO2 T01620073
KSWW 220055Z AUTO 35014G18KT 10SM CLR 17/07 A3008 RMK AO2 T01660070
KSWW 220035Z AUTO 36016G22KT 10SM SCT050 SCT065 18/07 A3007 RMK AO2 T01750066
KSWW 220015Z AUTO 36013G20KT 10SM SCT050 SCT065 18/07 A3006 RMK AO2 T01810070
KSWW 212355Z AUTO 36014KT 10SM CLR 18/07 A3005 RMK AO2 T01820070 10263 20165
KSWW 212335Z AUTO 36014G21KT 10SM CLR 19/07 A3004 RMK AO2 T01900071
KSWW 212315Z AUTO 34014G18KT 10SM CLR 20/07 A3003 RMK AO2 T02030073
KSWW 212255Z AUTO 35013G24KT 10SM SCT042 20/08 A3002 RMK AO2 T02010076
KSWW 212235Z AUTO 36014G21KT 10SM SCT110 20/09 A3001 RMK AO2 LTG DSNT E T01990094
KSWW 212215Z AUTO 01016G19KT 10SM SCT120 19/10 A3000 RMK AO2 T01870101
KSWW 212155Z AUTO 34015G22KT 10SM SCT065 SCT070 BKN110 18/12 A3000 RMK AO2 T01750117
KSWW 212135Z AUTO 33014G26KT 10SM SCT050 SCT065 BKN110 17/13 A2999 RMK AO2 T01660127
KSWW 212115Z AUTO 34025G31KT 10SM SCT055 SCT065 BKN090 21/09 A2997 RMK AO2 T02110094
KSWW 212055Z AUTO 33015G23KT 10SM SCT055 SCT065 BKN090 23/09 A2995 RMK AO2 T02260091
KSWW 212030Z AUTO 34013G19KT 10SM SCT090 BKN110 24/10 A2993 RMK AO2 LTG DSNT NW T02390098
KSWW 212015Z AUTO 35020G31KT 10SM SCT090 SCT110 24/10 A2993 RMK AO2 T02410102
KSWW 211955Z AUTO 28015G21KT 10SM SCT090 25/02 A2992 RMK AO2 T02540018
KSWW 211935Z AUTO 29017G26KT 10SM SCT090 25/02 A2992 RMK AO2 T02510023
KSWW 211915Z AUTO 28021KT 10SM SCT080 SCT090 25/02 A2992 RMK AO2 LTG DSNT E T02530016
KSWW 211855Z AUTO 29013G25KT 10SM SCT065 SCT080 25/04 A2991 RMK AO2 T02530037
KSWW 211830Z AUTO 28015G23KT 10SM CLR 25/06 A2992 RMK AO2 T02460058
KSWW 211815Z AUTO 27019G26KT 10SM CLR 24/07 A2992 RMK AO2 T02410067
KSWW 211755Z AUTO 26022G27KT 10SM CLR 24/08 A2992 RMK AO2 T02350075 10238 20131
KSWW 211735Z AUTO 26014G24KT 10SM CLR 23/07 A2992 RMK AO2 LTG DSNT E T02330068
KSWW 211715Z AUTO 23018G24KT 10SM CLR 23/07 A2993 RMK AO2 LTG DSNT E T02260072
KSWW 211655Z AUTO 24020G24KT 10SM CLR 23/06 A2993 RMK AO2 T02250061
KSWW 211635Z AUTO 22018G23KT 10SM CLR 23/04 A2992 RMK AO2 LTG DSNT NE T02290043
KSWW 211615Z AUTO 21019KT 10SM CLR 23/02 A2991 RMK AO2 LTG DSNT E T02280016
KSWW 211555Z AUTO 19019G23KT 10SM CLR 22/02 A2991 RMK AO2 LTG DSNT N T02200023
KSWW 211530Z AUTO 18017G22KT 10SM SCT012 SCT023 SCT027 20/14 A2991 RMK AO2 LTG DSNT N T02010138
KSWW 211515Z AUTO 17013G17KT 10SM SCT007 BKN013 18/16 A2992 RMK AO2 LTG DSNT N T01800157
KSWW 211455Z AUTO 16010KT 10SM BKN005 OVC011 16/16 A2993 RMK AO2 T01580157
KSWW 211435Z AUTO 16010KT 10SM VCTS BKN003 OVC010 15/15 A2994 RMK AO2 LTG DSNT NW T01490149
KSWW 211415Z AUTO 15009KT 7SM OVC003 14/14 A2994 RMK AO2 LTG DSNT N T01380138
KSWW 211355Z AUTO 14007KT 5SM OVC003 14/14 A2995 RMK AO2 LTG DSNT NE T01350135
KSWW 211335Z AUTO 14007KT 5SM OVC003 13/13 A2994 RMK AO2 T01330133
KSWW 211315Z AUTO 13008KT 4SM OVC003 13/13 A2994 RMK AO2 T01320132
KSWW 211235Z AUTO 13006KT 4SM OVC003 13/13 A2995 RMK AO2 T01320132
KSWW 211215Z AUTO 14008KT 5SM OVC003 13/13 A2994 RMK AO2 LTG DSNT NE T01320132
KSWW 211155Z AUTO 15010G18KT 7SM OVC003 13/13 A2994 RMK AO2 60003 70003 T01320132 10150 20132
KSWW 211135Z AUTO 15011KT 10SM OVC003 13/13 A2993 RMK AO2 T01320132
KSWW 211115Z AUTO 15013G18KT 10SM OVC003 13/13 A2993 RMK AO2 T01330133
KSWW 211055Z AUTO 16015KT 10SM OVC005 13/13 A2992 RMK AO2 T01320132
KSWW 211035Z AUTO 15013G17KT 10SM OVC005 13/13 A2992 RMK AO2 T01320132
KSWW 211015Z AUTO 15012KT 10SM OVC005 13/13 A2991 RMK AO2 T01330133
KSWW 210955Z AUTO 15013KT 10SM OVC005 13/13 A2991 RMK AO2 T01330133
KSWW 210935Z AUTO 15017G23KT 10SM OVC005 13/13 A2992 RMK AO2 T01330133
KSWW 210915Z AUTO 15016G19KT 10SM OVC005 14/14 A2992 RMK AO2 T01350135
KSWW 210855Z AUTO 14011KT 7SM OVC005 14/14 A2992 RMK AO2 LTG DSNT NE AND E P0001 60003 T01360136
KSWW 210835Z AUTO 15016G21KT 7SM OVC005 14/14 A2992 RMK AO2 P0001 T01360136
KSWW 210815Z AUTO 15015KT 10SM OVC007 14/14 A2994 RMK AO2 T01360136
KSWW 210755Z AUTO 15015G21KT 7SM OVC007 14/14 A2994 RMK AO2 T01360136
KSWW 210730Z AUTO 14014G18KT 4SM OVC003 14/14 A2995 RMK AO2 T01350135
KSWW 210715Z AUTO 13013KT 3SM BKN003 OVC007 14/14 A2996 RMK AO2 T01360136
KSWW 210655Z AUTO 13009KT 2 1/2SM SCT003 BKN009 OVC030 14/14 A2997 RMK AO2 LTG DSNT N P0002 T01400140
KSWW 210635Z AUTO 15011KT 4SM OVC009 14/14 A3000 RMK AO2 P0001 T01410141
KSWW 210615Z AUTO 16005KT 7SM OVC009 15/13 A3002 RMK AO2 T01460129
KSWW 210555Z AUTO 15009KT 10SM OVC011 15/12 A3001 RMK AO2 T01500123 10205 20150 402140110
KSWW 210535Z AUTO 16009G14KT 10SM OVC013 15/12 A3001 RMK AO2 T01510121
KSWW 210515Z AUTO 16010G20KT 10SM OVC013 15/12 A3000 RMK AO2 T01520118
KSWW 210455Z AUTO 14014KT 10SM OVC015 16/12 A2998 RMK AO2 T01550116
KSWW 210435Z AUTO 14016G25KT 10SM OVC017 16/11 A2999 RMK AO2 T01560113
KSWW 210415Z AUTO 15013G23KT 10SM OVC019 16/11 A2999 RMK AO2 T01580108
KSWW 210355Z AUTO 14009KT 10SM OVC021 16/11 A2998 RMK AO2 T01610105
KSWW 210335Z AUTO 14023G31KT 10SM OVC023 16/10 A2994 RMK AO2 T01610103
KSWW 210315Z AUTO 14019G30KT 10SM BKN025 OVC030 16/10 A2993 RMK AO2 T01640097
KSWW 210255Z AUTO 13019G29KT 10SM OVC027 17/10 A2993 RMK AO2 T01670095
KSWW 210235Z AUTO 13024G32KT 10SM BKN031 OVC037 17/09 A2994 RMK AO2 T01710087
KSWW 210215Z AUTO 15024G28KT 10SM OVC037 18/08 A2994 RMK AO2 T01750082
KSWW 210155Z AUTO 13023G32KT 10SM OVC037 18/08 A2991 RMK AO2 T01760078
KSWW 210135Z AUTO 14025G32KT 10SM OVC039 18/08 A2991 RMK AO2 T01800079
KSWW 210115Z AUTO 13025G36KT 10SM OVC041 19/08 A2991 RMK AO2 T01850075
KSWW 210050Z AUTO 14026G31KT 10SM OVC043 19/07 A2993 RMK AO2 T01900071
KSWW 210035Z AUTO 14026G31KT 10SM OVC045 19/07 A2993 RMK AO2 T01930067
KSWW 210015Z AUTO 13022G29KT 10SM OVC045 20/06 A2993 RMK AO2 T01970064
KSWW 202355Z AUTO 14021G27KT 10SM OVC043 20/06 A2993 RMK AO2 T02030056 10214 20178
KSWW 202335Z AUTO 13023G32KT 10SM OVC045 20/05 A2993 RMK AO2 T02040051
KSWW 202315Z AUTO 13021G31KT 10SM OVC045 21/06 A2994 RMK AO2 LTG DSNT N T02070056
KSWW 202255Z AUTO 13020G31KT 10SM OVC047 21/05 A2995 RMK AO2 LTG DSNT N T02050047
KSWW 202235Z AUTO 12021G29KT 10SM OVC049 21/05 A2995 RMK AO2 T02070045
KSWW 202210Z AUTO 14019G29KT 10SM OVC047 21/05 A2997 RMK AO2 T02090048
KSWW 202155Z AUTO 14023G30KT 10SM OVC047 21/05 A2997 RMK AO2 T02070045
KSWW 202135Z AUTO 14021G29KT 10SM OVC047 21/05 A2998 RMK AO2 T02110047
KSWW 202115Z AUTO 13026G31KT 10SM OVC047 21/05 A2999 RMK AO2 T02080046
KSWW 202055Z AUTO 13020G28KT 10SM OVC047 21/04 A3002 RMK AO2 LTG DSNT N T02070043
KSWW 202035Z AUTO 12020G27KT 10SM OVC049 20/04 A3003 RMK AO2 LTG DSNT N T02020040
KSWW 202015Z AUTO 13020G29KT 10SM OVC049 20/04 A3005 RMK AO2 LTG DSNT N T02000042
KSWW 201955Z AUTO 12020G27KT 10SM OVC049 20/04 A3005 RMK AO2 T02010040
KSWW 201930Z AUTO 14021G29KT 10SM BKN044 BKN050 21/04 A3005 RMK AO2 T02110038
KSWW 201910Z AUTO 12021G29KT 10SM OVC044 20/04 A3007 RMK AO2 T02000037
KSWW 201855Z AUTO 13019G27KT 10SM OVC042 19/04 A3009 RMK AO2 LTG DSNT N T01900035
KSWW 201835Z AUTO 12020G25KT 10SM OVC040 19/04 A3010 RMK AO2 T01900035
KSWW 201815Z AUTO 14018G25KT 10SM OVC038 18/03 A3012 RMK AO2 T01810031
KSWW 201755Z AUTO 12020G29KT 10SM SCT038 OVC046 18/03 A3012 RMK AO2 T01800030 10184 20110
KSWW 201735Z AUTO 13018KT 10SM OVC044 18/03 A3013 RMK AO2 T01760025
KSWW 201715Z AUTO 13016G26KT 10SM OVC048 18/02 A3013 RMK AO2 T01760023
KSWW 201655Z AUTO 12021G25KT 10SM SCT036 OVC050 17/02 A3014 RMK AO2 T01720021
KSWW 201635Z AUTO 13019G25KT 10SM SCT036 OVC050 17/02 A3015 RMK AO2 LTG DSNT N T01710017
KSWW 201610Z AUTO 12016G25KT 10SM OVC050 17/02 A3016 RMK AO2 T01680017
KSWW 201555Z AUTO 12016G27KT 10SM OVC060 17/02 A3016 RMK AO2 T01680016
KSWW 201535Z AUTO 11019G24KT 10SM OVC060 17/02 A3017 RMK AO2 T01650016
KSWW 201515Z AUTO 11019G26KT 10SM BKN060 17/02 A3017 RMK AO2 T01700015